createdAt,value
2023-04-17T00:00:43.648Z,12.18
2023-04-17T00:05:45.947Z,12.36
2023-04-17T00:10:51.118Z,12.28
2023-04-17T00:15:56.167Z,12.26
2023-04-17T00:20:59.025Z,12.07
2023-04-17T00:25:58.634Z,12.15
2023-04-17T00:30:59.099Z,12.55
2023-04-17T00:35:57.197Z,12.37
2023-04-17T00:40:57.502Z,12.08
2023-04-17T00:45:57.495Z,12.11
2023-04-17T00:51:02.395Z,12.13
2023-04-17T00:56:05.012Z,12.24
2023-04-17T01:01:14.382Z,12.10
2023-04-17T01:06:14.082Z,12.08
2023-04-17T01:11:14.018Z,12.14
2023-04-17T01:16:13.485Z,12.11
2023-04-17T01:21:13.386Z,12.29
2023-04-17T01:26:18.192Z,12.02
2023-04-17T01:31:18.702Z,12.25
2023-04-17T01:36:23.103Z,12.52
2023-04-17T01:41:25.006Z,12.54
2023-04-17T01:46:25.209Z,12.58
2023-04-17T01:51:28.132Z,12.48
2023-04-17T01:56:32.311Z,12.59
2023-04-17T02:01:31.573Z,12.58
2023-04-17T02:06:35.315Z,12.19
2023-04-17T02:11:35.855Z,12.49
2023-04-17T02:16:36.567Z,12.56
2023-04-17T02:21:40.169Z,12.64
2023-04-17T02:26:42.200Z,12.60
2023-04-17T02:31:46.546Z,12.90
2023-04-17T02:36:51.182Z,12.76
2023-04-17T02:41:53.210Z,12.90
2023-04-17T02:46:52.299Z,12.73
2023-04-17T02:51:54.323Z,12.25
2023-04-17T02:56:53.446Z,12.31
2023-04-17T03:01:53.728Z,12.57
2023-04-17T03:06:54.428Z,12.41
2023-04-17T03:11:54.484Z,12.66
2023-04-17T03:16:58.304Z,12.32
2023-04-17T03:21:56.617Z,12.71
2023-04-17T03:26:58.838Z,12.58
2023-04-17T03:32:01.481Z,12.35
2023-04-17T03:36:59.867Z,12.58
2023-04-17T03:42:03.447Z,12.52
2023-04-17T03:47:01.848Z,12.43
2023-04-17T03:52:04.015Z,12.34
2023-04-17T03:57:04.202Z,12.00
2023-04-17T04:02:11.913Z,11.94
2023-04-17T04:07:11.331Z,12.28
2023-04-17T04:12:16.489Z,12.56
2023-04-17T04:17:22.266Z,12.57
2023-04-17T04:22:29.782Z,12.67
2023-04-17T04:27:33.881Z,12.18
2023-04-17T04:32:38.808Z,12.40
2023-04-17T04:37:43.182Z,12.62
2023-04-17T04:42:49.901Z,12.75
2023-04-17T04:48:00.877Z,12.35
2023-04-17T04:53:01.900Z,12.45
2023-04-17T04:58:38.324Z,12.41
2023-04-17T05:03:40.926Z,12.02
2023-04-17T05:08:52.917Z,12.20
2023-04-17T05:13:54.090Z,12.12
2023-04-17T05:18:58.006Z,12.51
2023-04-17T05:24:16.548Z,12.93
2023-04-17T05:29:26.327Z,12.92
2023-04-17T05:34:30.302Z,12.89
2023-04-17T05:39:29.162Z,12.57
2023-04-17T05:45:10.053Z,12.69
2023-04-17T05:50:40.374Z,12.59
2023-04-17T05:55:41.925Z,12.42
2023-04-17T06:01:13.717Z,12.53
2023-04-17T06:06:21.796Z,12.85
2023-04-17T06:11:25.535Z,13.01
2023-04-17T06:16:26.835Z,13.14
2023-04-17T06:21:24.897Z,13.23
2023-04-17T06:26:22.987Z,13.04
2023-04-17T06:31:22.629Z,13.19
2023-04-17T06:36:22.567Z,13.50
2023-04-17T06:41:25.428Z,13.33
2023-04-17T06:46:30.548Z,12.83
2023-04-17T06:51:32.056Z,13.08
2023-04-17T06:56:36.930Z,13.71
2023-04-17T07:01:35.994Z,13.54
2023-04-17T07:06:36.792Z,13.57
2023-04-17T07:17:06.932Z,13.40
2023-04-17T07:22:08.292Z,12.67
2023-04-17T07:27:08.604Z,12.59
2023-04-17T07:32:29.394Z,12.85
2023-04-17T07:37:28.812Z,12.98
2023-04-17T07:42:34.894Z,12.49
2023-04-17T07:47:34.205Z,12.66
2023-04-17T07:52:31.937Z,12.52
2023-04-17T07:57:42.977Z,12.83
2023-04-17T08:02:44.100Z,12.69
2023-04-17T08:07:44.030Z,12.32
2023-04-17T08:12:45.358Z,12.25
2023-04-17T08:17:52.452Z,12.69
2023-04-17T08:22:54.623Z,12.56
2023-04-17T08:27:52.965Z,12.39
2023-04-17T08:32:55.793Z,12.49
2023-04-17T08:37:58.994Z,12.45
2023-04-17T08:42:59.144Z,12.38
2023-04-17T08:48:01.965Z,12.49
2023-04-17T08:53:01.777Z,12.48
2023-04-17T08:58:04.263Z,12.44
2023-04-17T09:03:12.537Z,12.36
2023-04-17T09:08:27.999Z,12.31
2023-04-17T09:13:33.547Z,12.54
2023-04-17T09:18:43.859Z,12.20
2023-04-17T09:23:55.735Z,12.42
2023-04-17T09:29:21.608Z,12.35
2023-04-17T09:34:22.012Z,12.37
2023-04-17T09:39:30.052Z,12.31
2023-04-17T09:44:32.730Z,12.60
2023-04-17T09:49:52.841Z,12.30
2023-04-17T09:54:55.103Z,12.82
2023-04-17T10:00:03.347Z,12.79
2023-04-17T10:05:09.000Z,12.42
2023-04-17T10:10:11.157Z,12.45
2023-04-17T10:15:16.099Z,12.51
2023-04-17T10:20:23.722Z,12.78
2023-04-17T10:25:35.321Z,12.83
2023-04-17T10:36:41.427Z,12.96
2023-04-17T10:47:43.041Z,13.04
2023-04-17T10:52:49.968Z,12.93
2023-04-17T10:57:53.310Z,13.31
2023-04-17T11:02:53.501Z,13.04
2023-04-17T11:07:53.216Z,12.92
2023-04-17T11:12:53.809Z,12.65
2023-04-17T11:17:52.912Z,12.95
2023-04-17T11:28:30.229Z,13.47
2023-04-17T11:33:37.312Z,13.74
2023-04-17T11:38:35.960Z,13.63
2023-04-17T11:43:39.064Z,14.07
2023-04-17T11:48:42.532Z,13.39
2023-04-17T11:53:48.590Z,13.98
2023-04-17T11:58:57.851Z,13.75
2023-04-17T12:03:59.296Z,13.63
2023-04-17T12:09:03.056Z,12.97
2023-04-17T12:14:07.980Z,13.48
2023-04-17T12:19:11.762Z,13.88
2023-04-17T12:24:13.576Z,13.57
2023-04-17T12:29:15.964Z,13.49
2023-04-17T12:34:20.899Z,13.67
2023-04-17T12:39:19.233Z,13.19
2023-04-17T12:44:34.050Z,13.60
2023-04-17T12:49:33.120Z,13.80
2023-04-17T12:54:36.394Z,13.56
2023-04-17T12:59:43.968Z,13.40
2023-04-17T13:04:43.855Z,13.63
2023-04-17T13:09:43.571Z,13.38
2023-04-17T13:14:44.547Z,13.36
2023-04-17T13:19:47.049Z,13.33
2023-04-17T13:24:51.761Z,13.41
2023-04-17T13:36:39.172Z,13.01
2023-04-17T13:41:41.379Z,12.99
2023-04-17T13:46:41.004Z,12.86
2023-04-17T13:51:39.650Z,12.75
2023-04-17T13:56:39.165Z,12.52
2023-04-17T14:01:44.920Z,12.71
2023-04-17T14:06:44.396Z,12.83
2023-04-17T14:11:42.986Z,13.22
2023-04-17T14:16:46.498Z,12.75
2023-04-17T14:21:44.934Z,12.85
2023-04-17T14:26:45.519Z,13.14
2023-04-17T14:31:46.467Z,12.92
2023-04-17T14:36:49.234Z,12.89
2023-04-17T14:42:02.256Z,12.89
2023-04-17T14:47:03.815Z,12.99
2023-04-17T14:52:03.502Z,12.89
2023-04-17T14:57:01.975Z,12.82
2023-04-17T15:02:03.123Z,12.46
2023-04-17T15:07:05.052Z,12.50
2023-04-17T15:12:07.962Z,12.61
2023-04-17T15:17:07.173Z,12.54
2023-04-17T15:22:11.369Z,12.76
2023-04-17T15:27:11.028Z,12.62
2023-04-17T15:32:13.156Z,12.79
2023-04-17T15:37:15.398Z,13.02
2023-04-17T15:42:18.254Z,12.78
2023-04-17T15:47:17.772Z,12.66
2023-04-17T15:52:16.958Z,12.45
2023-04-17T15:57:19.378Z,12.86
2023-04-17T16:02:21.706Z,12.89
2023-04-17T16:13:13.268Z,12.49
2023-04-17T16:18:16.381Z,12.65
2023-04-17T16:23:18.179Z,12.59
2023-04-17T16:28:18.271Z,12.61
2023-04-17T16:33:18.717Z,12.74
2023-04-17T16:38:18.283Z,12.46
2023-04-17T16:43:22.636Z,12.73
2023-04-17T16:48:30.773Z,12.73
2023-04-17T16:53:32.361Z,12.61
2023-04-17T16:58:34.936Z,12.38
2023-04-17T17:03:33.737Z,12.72
2023-04-17T17:08:32.475Z,12.59
2023-04-17T17:13:34.088Z,12.38
2023-04-17T17:18:35.966Z,12.38
2023-04-17T17:23:38.430Z,12.33
2023-04-17T17:28:38.491Z,12.36
2023-04-17T17:33:41.246Z,12.27
2023-04-17T17:38:44.127Z,12.02
2023-04-17T17:43:45.587Z,12.06
2023-04-17T17:48:50.694Z,12.38
2023-04-17T17:53:49.870Z,12.02
2023-04-17T17:58:54.089Z,12.38
2023-04-17T18:03:55.044Z,12.30
2023-04-17T18:08:54.380Z,12.23
2023-04-17T18:14:00.432Z,12.32
2023-04-17T18:19:02.114Z,12.13
2023-04-17T18:24:06.509Z,12.42
2023-04-17T18:29:06.184Z,12.68
2023-04-17T18:34:07.044Z,12.39
2023-04-17T18:39:05.690Z,12.40
2023-04-17T18:44:04.569Z,12.16
2023-04-17T18:49:11.658Z,12.15
2023-04-17T18:54:13.992Z,12.15
2023-04-17T19:04:57.700Z,12.09
2023-04-17T19:10:04.635Z,12.00
2023-04-17T19:15:17.992Z,12.06
2023-04-17T19:20:17.239Z,11.91
2023-04-17T19:25:18.913Z,12.08
2023-04-17T19:30:26.208Z,11.95
2023-04-17T19:35:38.737Z,11.78
2023-04-17T19:40:38.265Z,11.67
2023-04-17T19:45:50.697Z,11.87
2023-04-17T19:50:54.269Z,11.71
2023-04-17T19:56:43.182Z,11.68
2023-04-17T20:01:43.419Z,11.98
2023-04-17T20:06:48.120Z,11.85
2023-04-17T20:11:45.894Z,11.76
2023-04-17T20:16:46.672Z,11.66
2023-04-17T20:21:51.449Z,11.54
2023-04-17T20:26:53.903Z,11.77
2023-04-17T20:31:54.304Z,11.96
2023-04-17T20:37:03.670Z,11.66
2023-04-17T20:42:05.958Z,11.91
2023-04-17T20:47:06.960Z,11.86
2023-04-17T20:52:10.926Z,11.91
2023-04-17T20:57:16.122Z,11.74
2023-04-17T21:02:27.932Z,11.18
2023-04-17T21:07:30.009Z,11.20
2023-04-17T21:12:33.389Z,11.34
2023-04-17T21:17:36.508Z,11.49
2023-04-17T21:22:50.926Z,11.29
2023-04-17T21:27:52.792Z,11.36
2023-04-17T21:32:53.898Z,11.16
2023-04-17T21:37:55.514Z,10.48
2023-04-17T21:42:56.739Z,10.94
2023-04-17T21:48:00.542Z,11.03
2023-04-17T21:53:05.564Z,11.42
2023-04-17T21:58:05.667Z,11.44
2023-04-17T22:03:04.252Z,11.20
2023-04-17T22:08:34.226Z,11.09
2023-04-17T22:13:53.586Z,10.95
2023-04-17T22:19:25.627Z,10.93
2023-04-17T22:24:39.229Z,10.86
2023-04-17T22:29:38.893Z,10.30
2023-04-17T22:34:45.646Z,10.52
2023-04-17T22:39:45.766Z,10.61
2023-04-17T22:44:44.417Z,10.38
2023-04-17T22:49:47.075Z,10.25
2023-04-17T22:54:46.774Z,10.53
2023-04-17T22:59:48.582Z,10.48
2023-04-17T23:04:51.199Z,10.11
2023-04-17T23:09:51.838Z,9.79
2023-04-17T23:14:51.894Z,9.69
2023-04-17T23:19:55.480Z,9.65
2023-04-17T23:24:58.165Z,9.71
2023-04-17T23:29:58.038Z,10.09
2023-04-17T23:34:59.270Z,10.37
2023-04-17T23:40:05.317Z,10.24
2023-04-17T23:45:04.462Z,10.24
2023-04-17T23:50:05.616Z,10.51
2023-04-17T23:55:05.924Z,10.60
